sensor_id;sensor_type;location;lat;lon;timestamp;P1;durP1;ratioP1;P2;durP2;ratioP2
62121;SDS011;48108;47.532;19.084;2023-06-14T03:55:51;7.43;;;5.00;;
62121;SDS011;48108;47.532;19.084;2023-06-14T03:58:59;11.40;;;5.53;;
62121;SDS011;48108;47.532;19.084;2023-06-14T04:02:03;10.85;;;5.45;;
62121;SDS011;48108;47.532;19.084;2023-06-14T04:05:08;10.90;;;6.00;;
62121;SDS011;48108;47.532;19.084;2023-06-14T04:08:11;9.63;;;5.65;;
62121;SDS011;48108;47.532;19.084;2023-06-14T04:11:17;11.90;;;6.07;;
62121;SDS011;48108;47.532;19.084;2023-06-14T04:14:20;11.45;;;5.87;;
62121;SDS011;48108;47.532;19.084;2023-06-14T04:17:23;10.60;;;5.60;;
62121;SDS011;48108;47.532;19.084;2023-06-14T04:20:27;10.40;;;6.22;;
62121;SDS011;48108;47.532;19.084;2023-06-14T04:23:30;11.00;;;6.40;;
62121;SDS011;48108;47.532;19.084;2023-06-14T04:26:35;8.80;;;5.60;;
62121;SDS011;48108;47.532;19.084;2023-06-14T04:29:39;10.90;;;5.72;;
62121;SDS011;48108;47.532;19.084;2023-06-14T04:32:42;11.02;;;5.87;;
62121;SDS011;48108;47.532;19.084;2023-06-14T04:35:45;10.80;;;5.60;;
62121;SDS011;48108;47.532;19.084;2023-06-14T04:38:52;12.05;;;5.97;;
62121;SDS011;48108;47.532;19.084;2023-06-14T04:41:57;9.82;;;5.57;;
62121;SDS011;48108;47.532;19.084;2023-06-14T04:45:03;9.70;;;5.82;;
62121;SDS011;48108;47.532;19.084;2023-06-14T04:48:06;10.68;;;6.00;;
62121;SDS011;48108;47.532;19.084;2023-06-14T04:51:09;12.37;;;6.72;;
62121;SDS011;48108;47.532;19.084;2023-06-14T04:54:13;10.30;;;6.10;;
62121;SDS011;48108;47.532;19.084;2023-06-14T04:57:16;11.45;;;6.03;;
62121;SDS011;48108;47.532;19.084;2023-06-14T05:00:20;10.80;;;6.15;;
62121;SDS011;48108;47.532;19.084;2023-06-14T05:03:23;13.07;;;5.97;;
62121;SDS011;48108;47.532;19.084;2023-06-14T05:06:26;12.77;;;6.20;;
62121;SDS011;48108;47.532;19.084;2023-06-14T05:09:33;8.70;;;5.40;;
62121;SDS011;48108;47.532;19.084;2023-06-14T05:12:36;9.88;;;5.43;;
62121;SDS011;48108;47.532;19.084;2023-06-14T05:15:39;8.93;;;5.75;;
62121;SDS011;48108;47.532;19.084;2023-06-14T05:18:42;8.32;;;5.45;;
62121;SDS011;48108;47.532;19.084;2023-06-14T05:21:46;9.50;;;5.78;;
62121;SDS011;48108;47.532;19.084;2023-06-14T05:24:50;10.15;;;6.28;;
62121;SDS011;48108;47.532;19.084;2023-06-14T05:27:53;13.60;;;6.22;;
62121;SDS011;48108;47.532;19.084;2023-06-14T05:30:56;10.73;;;6.37;;
62121;SDS011;48108;47.532;19.084;2023-06-14T05:33:59;8.90;;;5.65;;
62121;SDS011;48108;47.532;19.084;2023-06-14T05:37:02;12.57;;;6.47;;
62121;SDS011;48108;47.532;19.084;2023-06-14T05:40:07;11.40;;;6.03;;
62121;SDS011;48108;47.532;19.084;2023-06-14T05:43:12;12.85;;;6.45;;
62121;SDS011;48108;47.532;19.084;2023-06-14T05:46:15;14.30;;;6.68;;
62121;SDS011;48108;47.532;19.084;2023-06-14T05:49:18;10.07;;;5.53;;
62121;SDS011;48108;47.532;19.084;2023-06-14T05:52:21;12.05;;;5.60;;
62121;SDS011;48108;47.532;19.084;2023-06-14T05:55:24;9.98;;;5.70;;
62121;SDS011;48108;47.532;19.084;2023-06-14T05:58:27;11.77;;;5.80;;
62121;SDS011;48108;47.532;19.084;2023-06-14T06:01:30;12.13;;;6.28;;
62121;SDS011;48108;47.532;19.084;2023-06-14T06:04:33;9.20;;;5.57;;
62121;SDS011;48108;47.532;19.084;2023-06-14T06:07:36;10.02;;;5.60;;
62121;SDS011;48108;47.532;19.084;2023-06-14T06:10:40;11.00;;;5.57;;
62121;SDS011;48108;47.532;19.084;2023-06-14T06:13:43;11.43;;;5.70;;
62121;SDS011;48108;47.532;19.084;2023-06-14T06:16:46;10.00;;;5.62;;
62121;SDS011;48108;47.532;19.084;2023-06-14T06:19:49;10.77;;;5.28;;
62121;SDS011;48108;47.532;19.084;2023-06-14T06:22:52;7.87;;;4.75;;
62121;SDS011;48108;47.532;19.084;2023-06-14T06:25:54;8.82;;;4.80;;
62121;SDS011;48108;47.532;19.084;2023-06-14T06:28:58;8.88;;;5.30;;
62121;SDS011;48108;47.532;19.084;2023-06-14T06:32:01;8.32;;;5.37;;
62121;SDS011;48108;47.532;19.084;2023-06-14T06:35:05;8.95;;;5.47;;
62121;SDS011;48108;47.532;19.084;2023-06-14T06:38:09;7.93;;;5.62;;
62121;SDS011;48108;47.532;19.084;2023-06-14T06:41:12;8.38;;;5.22;;
62121;SDS011;48108;47.532;19.084;2023-06-14T06:44:15;8.60;;;5.30;;
62121;SDS011;48108;47.532;19.084;2023-06-14T06:47:20;10.02;;;5.12;;
62121;SDS011;48108;47.532;19.084;2023-06-14T06:50:23;12.80;;;5.43;;
62121;SDS011;48108;47.532;19.084;2023-06-14T06:53:27;10.50;;;5.35;;
62121;SDS011;48108;47.532;19.084;2023-06-14T06:56:42;9.23;;;5.30;;
62121;SDS011;48108;47.532;19.084;2023-06-14T06:59:46;9.05;;;5.25;;
62121;SDS011;48108;47.532;19.084;2023-06-14T07:02:49;7.28;;;4.93;;
62121;SDS011;48108;47.532;19.084;2023-06-14T07:05:52;9.70;;;5.60;;
62121;SDS011;48108;47.532;19.084;2023-06-14T07:08:54;6.97;;;4.82;;
62121;SDS011;48108;47.532;19.084;2023-06-14T07:11:57;8.25;;;4.97;;
62121;SDS011;48108;47.532;19.084;2023-06-14T07:15:00;7.30;;;4.70;;
62121;SDS011;48108;47.532;19.084;2023-06-14T07:18:04;8.50;;;5.20;;
62121;SDS011;48108;47.532;19.084;2023-06-14T07:21:09;12.45;;;5.07;;
62121;SDS011;48108;47.532;19.084;2023-06-14T07:24:13;6.20;;;4.28;;
62121;SDS011;48108;47.532;19.084;2023-06-14T07:27:18;9.05;;;4.45;;
62121;SDS011;48108;47.532;19.084;2023-06-14T07:30:21;8.88;;;4.82;;
62121;SDS011;48108;47.532;19.084;2023-06-14T07:33:28;7.68;;;4.85;;
62121;SDS011;48108;47.532;19.084;2023-06-14T07:36:31;7.22;;;5.05;;
62121;SDS011;48108;47.532;19.084;2023-06-14T07:39:34;9.57;;;5.28;;
62121;SDS011;48108;47.532;19.084;2023-06-14T07:42:37;8.18;;;5.03;;
62121;SDS011;48108;47.532;19.084;2023-06-14T07:45:39;8.32;;;4.95;;
62121;SDS011;48108;47.532;19.084;2023-06-14T07:48:55;7.20;;;4.43;;
62121;SDS011;48108;47.532;19.084;2023-06-14T07:51:58;7.60;;;4.93;;
62121;SDS011;48108;47.532;19.084;2023-06-14T07:55:01;9.05;;;5.20;;
62121;SDS011;48108;47.532;19.084;2023-06-14T07:58:04;6.07;;;4.25;;
62121;SDS011;48108;47.532;19.084;2023-06-14T08:01:08;7.55;;;4.80;;
62121;SDS011;48108;47.532;19.084;2023-06-14T08:04:13;9.75;;;4.50;;
62121;SDS011;48108;47.532;19.084;2023-06-14T08:07:16;8.15;;;4.65;;
62121;SDS011;48108;47.532;19.084;2023-06-14T08:10:20;8.88;;;4.60;;
62121;SDS011;48108;47.532;19.084;2023-06-14T08:13:23;11.55;;;5.12;;
62121;SDS011;48108;47.532;19.084;2023-06-14T08:16:26;10.43;;;5.05;;
62121;SDS011;48108;47.532;19.084;2023-06-14T08:19:29;9.85;;;5.03;;
62121;SDS011;48108;47.532;19.084;2023-06-14T08:22:32;6.37;;;4.10;;
62121;SDS011;48108;47.532;19.084;2023-06-14T08:25:36;8.52;;;4.32;;
62121;SDS011;48108;47.532;19.084;2023-06-14T08:28:39;11.63;;;4.85;;
62121;SDS011;48108;47.532;19.084;2023-06-14T08:31:42;6.78;;;4.22;;
62121;SDS011;48108;47.532;19.084;2023-06-14T08:34:45;5.07;;;3.50;;
62121;SDS011;48108;47.532;19.084;2023-06-14T08:38:06;7.15;;;4.12;;
62121;SDS011;48108;47.532;19.084;2023-06-14T08:41:09;8.52;;;4.20;;
62121;SDS011;48108;47.532;19.084;2023-06-14T08:44:16;6.32;;;4.20;;
62121;SDS011;48108;47.532;19.084;2023-06-14T08:47:19;5.97;;;3.90;;
62121;SDS011;48108;47.532;19.084;2023-06-14T08:50:23;6.75;;;4.10;;
62121;SDS011;48108;47.532;19.084;2023-06-14T08:53:34;6.07;;;3.75;;
62121;SDS011;48108;47.532;19.084;2023-06-14T08:56:44;5.12;;;3.90;;
62121;SDS011;48108;47.532;19.084;2023-06-14T08:59:48;10.20;;;4.43;;
62121;SDS011;48108;47.532;19.084;2023-06-14T09:02:54;5.47;;;4.03;;
62121;SDS011;48108;47.532;19.084;2023-06-14T09:06:01;6.47;;;4.10;;
62121;SDS011;48108;47.532;19.084;2023-06-14T09:09:08;5.70;;;4.20;;
62121;SDS011;48108;47.532;19.084;2023-06-14T09:12:11;8.10;;;4.10;;
62121;SDS011;48108;47.532;19.084;2023-06-14T09:15:14;8.38;;;4.22;;
62121;SDS011;48108;47.532;19.084;2023-06-14T09:18:18;6.10;;;4.47;;
62121;SDS011;48108;47.532;19.084;2023-06-14T09:21:22;24.02;;;5.62;;
62121;SDS011;48108;47.532;19.084;2023-06-14T09:24:26;9.13;;;4.32;;
62121;SDS011;48108;47.532;19.084;2023-06-14T09:27:29;9.98;;;4.00;;
62121;SDS011;48108;47.532;19.084;2023-06-14T09:30:37;6.60;;;3.62;;
62121;SDS011;48108;47.532;19.084;2023-06-14T09:33:47;7.70;;;3.40;;
62121;SDS011;48108;47.532;19.084;2023-06-14T09:36:52;8.20;;;3.70;;
62121;SDS011;48108;47.532;19.084;2023-06-14T09:39:55;7.62;;;3.80;;
62121;SDS011;48108;47.532;19.084;2023-06-14T09:42:59;9.57;;;3.72;;
62121;SDS011;48108;47.532;19.084;2023-06-14T09:46:01;7.68;;;4.00;;
62121;SDS011;48108;47.532;19.084;2023-06-14T09:49:06;7.85;;;3.80;;
62121;SDS011;48108;47.532;19.084;2023-06-14T09:52:10;8.13;;;3.62;;
62121;SDS011;48108;47.532;19.084;2023-06-14T09:55:16;4.85;;;3.10;;
62121;SDS011;48108;47.532;19.084;2023-06-14T09:58:21;4.60;;;3.60;;
62121;SDS011;48108;47.532;19.084;2023-06-14T10:01:28;7.57;;;3.90;;
62121;SDS011;48108;47.532;19.084;2023-06-14T10:04:33;6.53;;;3.45;;
62121;SDS011;48108;47.532;19.084;2023-06-14T10:11:02;3.08;;;2.78;;
62121;SDS011;48108;47.532;19.084;2023-06-14T10:14:05;5.68;;;2.83;;
62121;SDS011;48108;47.532;19.084;2023-06-14T10:17:10;6.62;;;2.95;;
62121;SDS011;48108;47.532;19.084;2023-06-14T10:20:27;4.35;;;3.08;;
62121;SDS011;48108;47.532;19.084;2023-06-14T10:23:54;4.15;;;2.80;;
62121;SDS011;48108;47.532;19.084;2023-06-14T10:27:02;3.70;;;2.47;;
62121;SDS011;48108;47.532;19.084;2023-06-14T10:30:07;4.80;;;2.78;;
62121;SDS011;48108;47.532;19.084;2023-06-14T10:33:10;3.87;;;2.90;;
62121;SDS011;48108;47.532;19.084;2023-06-14T10:36:28;5.00;;;2.62;;
62121;SDS011;48108;47.532;19.084;2023-06-14T10:39:43;3.30;;;2.62;;
62121;SDS011;48108;47.532;19.084;2023-06-14T10:42:53;4.47;;;3.05;;
62121;SDS011;48108;47.532;19.084;2023-06-14T10:46:11;4.93;;;2.75;;
62121;SDS011;48108;47.532;19.084;2023-06-14T10:49:46;3.10;;;2.75;;
62121;SDS011;48108;47.532;19.084;2023-06-14T10:52:48;3.42;;;2.75;;
62121;SDS011;48108;47.532;19.084;2023-06-14T10:55:51;3.05;;;2.75;;
62121;SDS011;48108;47.532;19.084;2023-06-14T10:58:54;2.97;;;2.65;;
62121;SDS011;48108;47.532;19.084;2023-06-14T11:05:54;4.22;;;3.17;;
62121;SDS011;48108;47.532;19.084;2023-06-14T11:12:11;4.40;;;2.80;;
62121;SDS011;48108;47.532;19.084;2023-06-14T11:15:15;4.45;;;3.08;;
62121;SDS011;48108;47.532;19.084;2023-06-14T11:18:18;9.32;;;2.97;;
62121;SDS011;48108;47.532;19.084;2023-06-14T11:21:23;6.93;;;3.47;;
62121;SDS011;48108;47.532;19.084;2023-06-14T11:24:29;3.30;;;2.67;;
62121;SDS011;48108;47.532;19.084;2023-06-14T11:27:33;3.62;;;2.72;;
62121;SDS011;48108;47.532;19.084;2023-06-14T11:30:35;4.10;;;2.87;;
62121;SDS011;48108;47.532;19.084;2023-06-14T11:33:38;3.15;;;2.65;;
62121;SDS011;48108;47.532;19.084;2023-06-14T11:36:41;4.70;;;2.83;;
62121;SDS011;48108;47.532;19.084;2023-06-14T11:39:45;6.95;;;2.60;;
62121;SDS011;48108;47.532;19.084;2023-06-14T11:42:48;6.18;;;2.47;;
62121;SDS011;48108;47.532;19.084;2023-06-14T11:45:51;4.43;;;2.47;;
62121;SDS011;48108;47.532;19.084;2023-06-14T11:49:09;3.80;;;2.72;;
62121;SDS011;48108;47.532;19.084;2023-06-14T11:52:13;4.47;;;2.58;;
62121;SDS011;48108;47.532;19.084;2023-06-14T11:55:17;7.18;;;2.60;;
62121;SDS011;48108;47.532;19.084;2023-06-14T11:58:21;6.03;;;2.50;;
62121;SDS011;48108;47.532;19.084;2023-06-14T12:01:24;3.78;;;2.33;;
62121;SDS011;48108;47.532;19.084;2023-06-14T12:04:28;3.35;;;2.22;;
62121;SDS011;48108;47.532;19.084;2023-06-14T12:07:32;4.45;;;2.30;;
62121;SDS011;48108;47.532;19.084;2023-06-14T12:10:39;4.40;;;2.50;;
62121;SDS011;48108;47.532;19.084;2023-06-14T12:13:46;3.22;;;2.30;;
62121;SDS011;48108;47.532;19.084;2023-06-14T12:17:03;6.43;;;2.58;;
62121;SDS011;48108;47.532;19.084;2023-06-14T12:20:10;3.77;;;2.43;;
62121;SDS011;48108;47.532;19.084;2023-06-14T12:23:19;3.33;;;2.28;;
62121;SDS011;48108;47.532;19.084;2023-06-14T12:26:22;4.00;;;2.65;;
62121;SDS011;48108;47.532;19.084;2023-06-14T12:29:30;3.65;;;2.28;;
62121;SDS011;48108;47.532;19.084;2023-06-14T12:32:33;3.47;;;2.05;;
62121;SDS011;48108;47.532;19.084;2023-06-14T12:35:36;8.40;;;2.30;;
62121;SDS011;48108;47.532;19.084;2023-06-14T12:38:39;2.97;;;2.33;;
62121;SDS011;48108;47.532;19.084;2023-06-14T12:41:42;2.17;;;1.98;;
62121;SDS011;48108;47.532;19.084;2023-06-14T12:44:44;3.53;;;2.60;;
62121;SDS011;48108;47.532;19.084;2023-06-14T12:47:47;4.95;;;2.67;;
62121;SDS011;48108;47.532;19.084;2023-06-14T12:50:50;3.87;;;2.80;;
62121;SDS011;48108;47.532;19.084;2023-06-14T12:53:54;4.80;;;2.40;;
62121;SDS011;48108;47.532;19.084;2023-06-14T12:56:57;4.37;;;2.40;;
62121;SDS011;48108;47.532;19.084;2023-06-14T13:00:00;4.85;;;2.15;;
62121;SDS011;48108;47.532;19.084;2023-06-14T13:03:03;2.45;;;2.25;;
62121;SDS011;48108;47.532;19.084;2023-06-14T13:06:06;2.00;;;1.90;;
62121;SDS011;48108;47.532;19.084;2023-06-14T13:09:09;2.00;;;1.90;;
62121;SDS011;48108;47.532;19.084;2023-06-14T13:12:12;2.25;;;2.05;;
62121;SDS011;48108;47.532;19.084;2023-06-14T13:15:15;3.78;;;2.10;;
62121;SDS011;48108;47.532;19.084;2023-06-14T13:18:18;3.10;;;2.60;;
62121;SDS011;48108;47.532;19.084;2023-06-14T13:21:20;2.70;;;2.45;;
62121;SDS011;48108;47.532;19.084;2023-06-14T13:24:23;4.75;;;2.42;;
62121;SDS011;48108;47.532;19.084;2023-06-14T13:27:26;3.05;;;2.42;;
62121;SDS011;48108;47.532;19.084;2023-06-14T13:30:30;3.90;;;2.83;;
62121;SDS011;48108;47.532;19.084;2023-06-14T13:33:33;4.50;;;2.97;;
62121;SDS011;48108;47.532;19.084;2023-06-14T13:36:36;5.50;;;2.35;;
62121;SDS011;48108;47.532;19.084;2023-06-14T13:39:39;4.80;;;2.67;;
62121;SDS011;48108;47.532;19.084;2023-06-14T13:42:42;7.97;;;2.53;;
62121;SDS011;48108;47.532;19.084;2023-06-14T13:45:45;4.32;;;2.53;;
62121;SDS011;48108;47.532;19.084;2023-06-14T13:48:48;2.95;;;2.42;;
62121;SDS011;48108;47.532;19.084;2023-06-14T13:51:50;3.25;;;2.35;;
62121;SDS011;48108;47.532;19.084;2023-06-14T13:54:53;2.40;;;2.20;;
62121;SDS011;48108;47.532;19.084;2023-06-14T13:57:56;3.45;;;2.50;;
62121;SDS011;48108;47.532;19.084;2023-06-14T14:01:00;3.95;;;2.42;;
62121;SDS011;48108;47.532;19.084;2023-06-14T14:04:04;5.30;;;2.50;;
62121;SDS011;48108;47.532;19.084;2023-06-14T14:07:07;3.10;;;2.00;;
62121;SDS011;48108;47.532;19.084;2023-06-14T14:10:10;3.85;;;2.47;;
62121;SDS011;48108;47.532;19.084;2023-06-14T14:13:16;4.68;;;2.35;;
62121;SDS011;48108;47.532;19.084;2023-06-14T14:16:19;3.15;;;2.40;;
62121;SDS011;48108;47.532;19.084;2023-06-14T14:19:22;3.83;;;2.25;;
62121;SDS011;48108;47.532;19.084;2023-06-14T14:22:25;5.12;;;2.58;;
62121;SDS011;48108;47.532;19.084;2023-06-14T14:25:27;3.78;;;2.67;;
62121;SDS011;48108;47.532;19.084;2023-06-14T14:28:31;2.60;;;2.00;;
62121;SDS011;48108;47.532;19.084;2023-06-14T14:31:34;3.05;;;2.45;;
62121;SDS011;48108;47.532;19.084;2023-06-14T14:34:38;4.05;;;2.40;;
62121;SDS011;48108;47.532;19.084;2023-06-14T14:37:40;4.15;;;2.45;;
62121;SDS011;48108;47.532;19.084;2023-06-14T14:40:44;5.93;;;2.40;;
62121;SDS011;48108;47.532;19.084;2023-06-14T14:43:47;2.42;;;2.22;;
62121;SDS011;48108;47.532;19.084;2023-06-14T14:46:50;2.97;;;2.30;;
62121;SDS011;48108;47.532;19.084;2023-06-14T14:49:53;3.47;;;2.30;;
62121;SDS011;48108;47.532;19.084;2023-06-14T14:52:56;3.00;;;2.47;;
62121;SDS011;48108;47.532;19.084;2023-06-14T14:55:58;3.30;;;2.55;;
62121;SDS011;48108;47.532;19.084;2023-06-14T14:59:02;2.72;;;2.20;;
62121;SDS011;48108;47.532;19.084;2023-06-14T15:02:05;3.67;;;2.45;;
62121;SDS011;48108;47.532;19.084;2023-06-14T15:05:08;3.45;;;2.22;;
62121;SDS011;48108;47.532;19.084;2023-06-14T15:08:11;4.25;;;2.50;;
62121;SDS011;48108;47.532;19.084;2023-06-14T15:11:14;3.33;;;2.55;;
62121;SDS011;48108;47.532;19.084;2023-06-14T15:14:17;4.57;;;2.60;;
62121;SDS011;48108;47.532;19.084;2023-06-14T15:17:22;3.75;;;2.20;;
62121;SDS011;48108;47.532;19.084;2023-06-14T15:20:27;3.30;;;2.47;;
62121;SDS011;48108;47.532;19.084;2023-06-14T15:23:30;2.65;;;2.30;;
62121;SDS011;48108;47.532;19.084;2023-06-14T15:26:37;3.08;;;2.40;;
62121;SDS011;48108;47.532;19.084;2023-06-14T15:29:44;4.72;;;2.47;;
62121;SDS011;48108;47.532;19.084;2023-06-14T15:32:50;3.15;;;2.12;;
62121;SDS011;48108;47.532;19.084;2023-06-14T15:35:53;4.30;;;2.67;;
62121;SDS011;48108;47.532;19.084;2023-06-14T15:38:56;3.22;;;2.47;;
62121;SDS011;48108;47.532;19.084;2023-06-14T15:41:59;4.22;;;2.60;;
62121;SDS011;48108;47.532;19.084;2023-06-14T15:45:02;4.12;;;2.25;;
62121;SDS011;48108;47.532;19.084;2023-06-14T15:48:05;5.87;;;2.70;;
62121;SDS011;48108;47.532;19.084;2023-06-14T15:51:08;3.53;;;2.60;;
62121;SDS011;48108;47.532;19.084;2023-06-14T15:54:11;6.15;;;2.53;;
62121;SDS011;48108;47.532;19.084;2023-06-14T15:57:14;3.85;;;2.60;;
62121;SDS011;48108;47.532;19.084;2023-06-14T16:00:17;3.03;;;2.45;;
62121;SDS011;48108;47.532;19.084;2023-06-14T16:03:21;2.78;;;2.45;;
62121;SDS011;48108;47.532;19.084;2023-06-14T16:06:24;3.37;;;2.60;;
62121;SDS011;48108;47.532;19.084;2023-06-14T16:09:27;3.10;;;2.40;;
62121;SDS011;48108;47.532;19.084;2023-06-14T16:12:30;2.53;;;2.33;;
62121;SDS011;48108;47.532;19.084;2023-06-14T16:15:33;5.70;;;2.78;;
62121;SDS011;48108;47.532;19.084;2023-06-14T16:18:35;3.53;;;2.85;;
62121;SDS011;48108;47.532;19.084;2023-06-14T16:21:39;3.37;;;2.67;;
62121;SDS011;48108;47.532;19.084;2023-06-14T16:24:42;3.85;;;2.80;;
62121;SDS011;48108;47.532;19.084;2023-06-14T16:27:45;2.30;;;2.10;;
62121;SDS011;48108;47.532;19.084;2023-06-14T16:30:48;2.72;;;2.47;;
62121;SDS011;48108;47.532;19.084;2023-06-14T16:33:51;4.40;;;2.45;;
62121;SDS011;48108;47.532;19.084;2023-06-14T16:36:57;3.15;;;2.70;;
